This is the latest recevied weather packets stored in our database for station/object DO7ZT-10. If no packets are shown the sender has not sent any weather packets the latest 10 day(s).
| Time | Temp. | Humidity | Pressure | Rain* | Wind** | Luminosity | Snow |
|---|---|---|---|---|---|---|---|
| 1787527874 | 11.67° C | 68% | 1023.2 hPa | - | - | - | - |
| 1787526974 | 11.67° C | 66% | 1023.3 hPa | - | - | - | - |
| 1787526074 | 12.22° C | 65% | 1023.3 hPa | - | - | - | - |
| 1787525174 | 12.22° C | 65% | 1023.3 hPa | - | - | - | - |
| 1787524274 | 12.22° C | 65% | 1023.3 hPa | - | - | - | - |
| 1787523374 | 12.22° C | 65% | 1023.4 hPa | - | - | - | - |
| 1787522474 | 12.22° C | 64% | 1023.3 hPa | - | - | - | - |
| 1787521574 | 12.22° C | 66% | 1023.3 hPa | - | - | - | - |
| 1787520674 | 12.22° C | 66% | 1023.2 hPa | - | - | - | - |
| 1787519774 | 12.78° C | 65% | 1023.2 hPa | - | - | - | - |
| 1787518874 | 12.78° C | 64% | 1023.2 hPa | - | - | - | - |
| 1787517974 | 13.33° C | 64% | 1023 hPa | - | - | - | - |
| 1787517074 | 13.33° C | 63% | 1023.2 hPa | - | - | - | - |
| 1787516174 | 13.33° C | 63% | 1023.1 hPa | - | - | - | - |
| 1787515273 | 13.33° C | 66% | 1023.1 hPa | - | - | - | - |
| 1787514373 | 13.33° C | 64% | 1023.1 hPa | - | - | - | - |
| 1787513473 | 13.33° C | 65% | 1023.2 hPa | - | - | - | - |
| 1787512573 | 13.33° C | 64% | 1023.2 hPa | - | - | - | - |
| 1787511673 | 13.89° C | 61% | 1023.1 hPa | - | - | - | - |
| 1787510773 | 14.44° C | 60% | 1023 hPa | - | - | - | - |
| 1787509873 | 14.44° C | 60% | 1022.8 hPa | - | - | - | - |
| 1787508973 | 15° C | 59% | 1022.9 hPa | - | - | - | - |
| 1787508073 | 15.56° C | 56% | 1022.7 hPa | - | - | - | - |
| 1787507173 | 16.11° C | 51% | 1022.8 hPa | - | - | - | - |
| 1787506273 | 16.67° C | 47% | 1022.8 hPa | - | - | - | - |
* Rain since midnight (hover to see other rain measurements)
** Current wind speed in m/s (hover to see current wind gust speed)